Time;durP1;ratioP1;P1;durP2;ratioP2;P2;SDS_P1;SDS_P2;PMS_P1;PMS_P2;Temp;Humidity;BMP_temperature;BMP_pressure;BME280_temperature;BME280_humidity;BME280_pressure;Samples;Min_cycle;Max_cycle;Signal;HPM_P1;HPM_P2
2022/01/04 00:01:46;;;;;;;;;;;9.80;99.90;;;;;;5018557;28;19913;-77
2022/01/04 00:04:12;;;;;;;;;;;9.80;99.90;;;;;;5005789;28;19913;-78
2022/01/04 00:06:38;;;;;;;;;;;9.80;99.90;;;;;;5028333;28;19917;-84
2022/01/04 00:09:07;;;;;;;;;;;9.70;99.90;;;;;;5023593;28;19917;-84
2022/01/04 00:14:20;;;;;;;;;;;9.70;99.90;;;;;;5024220;28;19916;-85
2022/01/04 00:16:47;;;;;;;;;;;9.60;99.90;;;;;;5021399;28;20361;-84
2022/01/04 00:19:17;;;;;;;;;;;9.60;99.90;;;;;;5024925;28;19920;-83
2022/01/04 00:21:43;;;;;;;;;;;9.50;99.90;;;;;;5017270;28;19913;-83
2022/01/04 00:24:09;;;;;;;;;;;9.50;99.90;;;;;;5031191;28;19916;-77
2022/01/04 00:26:36;;;;;;;;;;;9.50;99.90;;;;;;5000986;28;19916;-76
2022/01/04 00:29:02;;;;;;;;;;;9.50;99.90;;;;;;4988642;28;19920;-77
2022/01/04 00:31:28;;;;;;;;;;;9.50;99.90;;;;;;5013921;28;19909;-76
2022/01/04 00:33:55;;;;;;;;;;;9.60;99.90;;;;;;5029648;28;19944;-76
2022/01/04 00:36:21;;;;;;;;;;;9.60;99.90;;;;;;5004917;28;19913;-77
2022/01/04 00:38:47;;;;;;;;;;;9.60;99.90;;;;;;5032119;28;19913;-78
2022/01/04 00:41:13;;;;;;;;;;;9.60;99.90;;;;;;5004587;28;20268;-84
2022/01/04 00:43:40;;;;;;;;;;;9.60;99.90;;;;;;5001440;28;20062;-84
2022/01/04 00:46:07;;;;;;;;;;;9.60;99.90;;;;;;5009260;28;19925;-84
2022/01/04 00:51:00;;;;;;;;;;;9.70;99.90;;;;;;5006849;28;20012;-84
2022/01/04 00:53:26;;;;;;;;;;;9.60;99.90;;;;;;4988729;28;19913;-77
2022/01/04 00:55:52;;;;;;;;;;;9.70;99.90;;;;;;4985187;28;19913;-78
2022/01/04 00:58:24;;;;;;;;;;;9.60;99.90;;;;;;5015597;28;20288;-77
2022/01/04 01:00:50;;;;;;;;;;;9.60;99.90;;;;;;5014444;28;19925;-78
2022/01/04 01:03:16;;;;;;;;;;;9.60;99.90;;;;;;5034241;28;19913;-77
2022/01/04 01:05:43;;;;;;;;;;;9.60;99.90;;;;;;5019035;28;19940;-78
2022/01/04 01:08:09;;;;;;;;;;;9.60;99.90;;;;;;5020374;28;20276;-78
2022/01/04 01:10:44;;;;;;;;;;;9.60;99.90;;;;;;5016537;28;20284;-78
2022/01/04 01:13:11;;;;;;;;;;;9.60;99.90;;;;;;4971899;28;19920;-77
2022/01/04 01:15:40;;;;;;;;;;;9.60;99.90;;;;;;5032699;28;19915;-77
2022/01/04 01:18:07;;;;;;;;;;;9.60;99.90;;;;;;5034741;28;19916;-84
2022/01/04 01:20:33;;;;;;;;;;;9.60;99.90;;;;;;5021589;28;19916;-84
2022/01/04 01:22:59;;;;;;;;;;;9.70;99.90;;;;;;5020285;28;19913;-84
2022/01/04 01:25:25;;;;;;;;;;;9.70;99.90;;;;;;5050764;28;19916;-84
2022/01/04 01:27:51;;;;;;;;;;;9.70;99.90;;;;;;5025160;28;19913;-84
2022/01/04 01:30:18;;;;;;;;;;;9.70;99.90;;;;;;5006594;28;19917;-84
2022/01/04 01:32:44;;;;;;;;;;;9.70;99.90;;;;;;4989567;28;21167;-84
2022/01/04 01:35:11;;;;;;;;;;;9.70;99.90;;;;;;5023284;28;19921;-84
2022/01/04 01:37:37;;;;;;;;;;;9.70;99.90;;;;;;5022225;28;19909;-83
2022/01/04 01:40:04;;;;;;;;;;;9.70;99.90;;;;;;5021856;28;19914;-84
2022/01/04 01:42:30;;;;;;;;;;;9.70;99.90;;;;;;5034133;28;19929;-84
2022/01/04 01:44:56;;;;;;;;;;;9.70;99.90;;;;;;5003360;28;19913;-85
2022/01/04 01:47:23;;;;;;;;;;;9.70;99.90;;;;;;5021501;28;19948;-84
2022/01/04 01:49:49;;;;;;;;;;;9.70;99.90;;;;;;5035600;28;19913;-84
2022/01/04 01:52:16;;;;;;;;;;;9.70;99.90;;;;;;5001266;28;19921;-84
2022/01/04 01:54:43;;;;;;;;;;;9.70;99.90;;;;;;5021867;28;19916;-84
2022/01/04 01:57:09;;;;;;;;;;;9.70;99.90;;;;;;5020184;28;19917;-84
2022/01/04 01:59:36;;;;;;;;;;;9.70;99.90;;;;;;5030966;28;19916;-84
2022/01/04 02:02:02;;;;;;;;;;;9.70;99.90;;;;;;5018585;28;19921;-84
2022/01/04 02:04:28;;;;;;;;;;;9.70;99.90;;;;;;5016021;28;19921;-83
2022/01/04 02:06:54;;;;;;;;;;;9.70;99.90;;;;;;5016466;28;19940;-84
2022/01/04 02:09:21;;;;;;;;;;;9.70;99.90;;;;;;4974960;28;19928;-84
2022/01/04 02:11:48;;;;;;;;;;;9.70;99.90;;;;;;5015346;28;19917;-84
2022/01/04 02:14:14;;;;;;;;;;;9.70;99.90;;;;;;5034515;28;19908;-84
2022/01/04 02:16:41;;;;;;;;;;;9.60;99.90;;;;;;4992637;28;19928;-84
2022/01/04 02:19:10;;;;;;;;;;;9.60;99.90;;;;;;5016551;28;20287;-84
2022/01/04 02:21:36;;;;;;;;;;;9.60;99.90;;;;;;5018579;28;19916;-84
2022/01/04 02:24:03;;;;;;;;;;;9.60;99.90;;;;;;5001965;28;19920;-83
2022/01/04 02:26:30;;;;;;;;;;;9.60;99.90;;;;;;5014225;28;20296;-84
2022/01/04 02:28:58;;;;;;;;;;;9.60;99.90;;;;;;5019978;28;19950;-84
2022/01/04 02:31:24;;;;;;;;;;;9.60;99.90;;;;;;5019414;28;19909;-84
2022/01/04 02:33:54;;;;;;;;;;;9.60;99.90;;;;;;4998501;28;19924;-84
2022/01/04 02:36:21;;;;;;;;;;;9.60;99.90;;;;;;5004912;28;19925;-84
2022/01/04 02:38:47;;;;;;;;;;;9.60;99.90;;;;;;5004527;28;19920;-84
2022/01/04 02:41:16;;;;;;;;;;;9.60;99.90;;;;;;5002022;28;19908;-84
2022/01/04 02:43:42;;;;;;;;;;;9.60;99.90;;;;;;4986481;28;19921;-84
2022/01/04 02:46:08;;;;;;;;;;;9.60;99.90;;;;;;4987999;28;19960;-83
2022/01/04 02:48:42;;;;;;;;;;;9.50;99.90;;;;;;5029494;28;20443;-76
2022/01/04 02:51:09;;;;;;;;;;;9.50;99.90;;;;;;5014506;28;19917;-76
2022/01/04 02:53:35;;;;;;;;;;;9.50;99.90;;;;;;5011420;28;19924;-76
2022/01/04 02:56:04;;;;;;;;;;;9.50;99.90;;;;;;5000424;28;19916;-76
2022/01/04 02:58:30;;;;;;;;;;;9.50;99.90;;;;;;5004193;28;19916;-76
2022/01/04 03:00:56;;;;;;;;;;;9.50;99.90;;;;;;5015554;28;19913;-76
2022/01/04 03:03:23;;;;;;;;;;;9.50;99.90;;;;;;4984574;28;19924;-76
2022/01/04 03:05:49;;;;;;;;;;;9.50;99.90;;;;;;5032910;28;19913;-76
2022/01/04 03:08:15;;;;;;;;;;;9.50;99.90;;;;;;5018887;28;19912;-76
2022/01/04 03:10:41;;;;;;;;;;;9.50;99.90;;;;;;5007244;28;19928;-75
2022/01/04 03:13:08;;;;;;;;;;;9.50;99.90;;;;;;5015756;28;19925;-76
2022/01/04 03:15:34;;;;;;;;;;;9.50;99.90;;;;;;5034111;28;19913;-77
2022/01/04 03:18:00;;;;;;;;;;;9.50;99.90;;;;;;5021691;28;20527;-78
2022/01/04 03:20:26;;;;;;;;;;;9.50;99.90;;;;;;4988222;28;20284;-76
2022/01/04 03:22:53;;;;;;;;;;;9.50;99.90;;;;;;5033349;28;19905;-77
2022/01/04 03:25:19;;;;;;;;;;;9.50;99.90;;;;;;5006289;28;19909;-83
2022/01/04 03:27:45;;;;;;;;;;;9.40;99.90;;;;;;5021664;28;20563;-83
2022/01/04 03:30:11;;;;;;;;;;;9.40;99.90;;;;;;4993544;28;19941;-83
2022/01/04 03:32:38;;;;;;;;;;;9.40;99.90;;;;;;4993117;28;19905;-83
2022/01/04 03:35:05;;;;;;;;;;;9.40;99.90;;;;;;4992381;28;20522;-82
2022/01/04 03:37:31;;;;;;;;;;;9.40;99.90;;;;;;5008149;28;19924;-83
2022/01/04 03:39:57;;;;;;;;;;;9.40;99.90;;;;;;5006099;28;19920;-82
2022/01/04 03:42:24;;;;;;;;;;;9.40;99.90;;;;;;5016408;28;19913;-82
2022/01/04 03:44:50;;;;;;;;;;;9.40;99.90;;;;;;5023569;28;19924;-82
2022/01/04 03:47:16;;;;;;;;;;;9.40;99.90;;;;;;5033502;28;20268;-83
2022/01/04 03:49:42;;;;;;;;;;;9.40;99.90;;;;;;5010118;28;20384;-82
2022/01/04 03:52:09;;;;;;;;;;;9.30;99.90;;;;;;4991093;28;19928;-82
2022/01/04 03:54:35;;;;;;;;;;;9.30;99.90;;;;;;4977134;28;20708;-83
2022/01/04 03:57:01;;;;;;;;;;;9.30;99.90;;;;;;5008351;28;19924;-83
2022/01/04 03:59:27;;;;;;;;;;;9.30;99.90;;;;;;4975004;28;19913;-83
2022/01/04 04:01:54;;;;;;;;;;;9.30;99.90;;;;;;4990280;28;20960;-83
2022/01/04 04:04:20;;;;;;;;;;;9.30;99.90;;;;;;5020418;28;19928;-83
2022/01/04 04:06:46;;;;;;;;;;;9.30;99.90;;;;;;5007073;28;19924;-83
2022/01/04 04:09:13;;;;;;;;;;;9.30;99.90;;;;;;5022517;28;19924;-83
2022/01/04 04:11:39;;;;;;;;;;;9.30;99.90;;;;;;5019611;28;19925;-83
2022/01/04 04:14:05;;;;;;;;;;;9.30;99.90;;;;;;5021878;28;19909;-84
2022/01/04 04:16:33;;;;;;;;;;;9.30;99.90;;;;;;5018501;28;19925;-83
2022/01/04 04:18:59;;;;;;;;;;;9.20;99.90;;;;;;5005805;28;19909;-83
2022/01/04 04:21:25;;;;;;;;;;;9.20;99.90;;;;;;5033565;28;20721;-83
2022/01/04 04:23:55;;;;;;;;;;;9.20;99.90;;;;;;5015151;28;19921;-83
2022/01/04 04:26:21;;;;;;;;;;;9.20;99.90;;;;;;5048637;28;19921;-84
2022/01/04 04:28:47;;;;;;;;;;;9.20;99.90;;;;;;5002603;28;19943;-77
2022/01/04 04:31:13;;;;;;;;;;;9.20;99.90;;;;;;5030449;28;19921;-76
2022/01/04 04:33:40;;;;;;;;;;;9.20;99.90;;;;;;5011994;28;19913;-77
2022/01/04 04:36:08;;;;;;;;;;;9.20;99.90;;;;;;5032053;28;20005;-77
2022/01/04 04:38:34;;;;;;;;;;;9.20;99.90;;;;;;5012619;28;19921;-77
2022/01/04 04:41:00;;;;;;;;;;;9.20;99.90;;;;;;5016622;28;19920;-76
2022/01/04 04:43:27;;;;;;;;;;;9.10;99.90;;;;;;5002380;28;19909;-77
2022/01/04 04:45:53;;;;;;;;;;;9.10;99.90;;;;;;5030706;28;19920;-77
2022/01/04 04:48:19;;;;;;;;;;;9.20;99.90;;;;;;5016838;28;19917;-83
2022/01/04 04:50:45;;;;;;;;;;;9.20;99.90;;;;;;5019852;28;19932;-84
2022/01/04 04:53:12;;;;;;;;;;;9.20;99.90;;;;;;5004361;28;19932;-83
2022/01/04 04:55:38;;;;;;;;;;;9.20;99.90;;;;;;4991595;28;19921;-85
2022/01/04 04:58:04;;;;;;;;;;;9.20;99.90;;;;;;5023790;28;19920;-83
2022/01/04 05:00:30;;;;;;;;;;;9.20;99.90;;;;;;4975166;28;19929;-83
2022/01/04 05:02:56;;;;;;;;;;;9.20;99.90;;;;;;5001517;28;19909;-76
2022/01/04 05:05:23;;;;;;;;;;;9.20;99.90;;;;;;5007966;28;19935;-84
2022/01/04 05:07:49;;;;;;;;;;;9.20;99.90;;;;;;5019382;28;19920;-84
2022/01/04 05:10:15;;;;;;;;;;;9.20;99.90;;;;;;5016587;28;19921;-84
2022/01/04 05:12:42;;;;;;;;;;;9.20;99.90;;;;;;5018840;28;20450;-77
2022/01/04 05:15:08;;;;;;;;;;;9.20;99.90;;;;;;5016009;28;19920;-77
2022/01/04 05:17:34;;;;;;;;;;;9.20;99.90;;;;;;5003093;28;19948;-77
2022/01/04 05:20:01;;;;;;;;;;;9.20;99.90;;;;;;5015866;28;19921;-77
2022/01/04 05:22:27;;;;;;;;;;;9.10;99.90;;;;;;5000717;28;19913;-77
2022/01/04 05:24:53;;;;;;;;;;;9.10;99.90;;;;;;5019867;28;19913;-84
2022/01/04 05:27:19;;;;;;;;;;;9.10;99.90;;;;;;4992071;28;19921;-84
2022/01/04 05:29:46;;;;;;;;;;;9.10;99.90;;;;;;5006418;28;20288;-84
2022/01/04 05:32:15;;;;;;;;;;;9.10;99.90;;;;;;5017313;28;20284;-85
2022/01/04 05:34:44;;;;;;;;;;;9.10;99.90;;;;;;4991647;28;19913;-84
2022/01/04 05:37:10;;;;;;;;;;;9.10;99.90;;;;;;5030856;28;19917;-84
2022/01/04 05:39:36;;;;;;;;;;;9.10;99.90;;;;;;5015275;28;20629;-78
2022/01/04 05:42:03;;;;;;;;;;;9.10;99.90;;;;;;4982913;28;19917;-85
2022/01/04 05:44:29;;;;;;;;;;;9.10;99.90;;;;;;5002823;28;19920;-85
2022/01/04 05:46:55;;;;;;;;;;;9.00;99.90;;;;;;4990776;28;19920;-84
2022/01/04 05:49:21;;;;;;;;;;;9.10;99.90;;;;;;5034948;28;19924;-84
2022/01/04 05:51:48;;;;;;;;;;;9.10;99.90;;;;;;5003767;28;19921;-84
2022/01/04 05:54:14;;;;;;;;;;;9.10;99.90;;;;;;5031581;28;19932;-84
2022/01/04 05:56:40;;;;;;;;;;;9.10;99.90;;;;;;5033942;28;20356;-84
2022/01/04 05:59:06;;;;;;;;;;;9.10;99.90;;;;;;5034471;28;19916;-85
2022/01/04 06:01:33;;;;;;;;;;;9.10;99.90;;;;;;5048739;28;19920;-77
2022/01/04 06:03:59;;;;;;;;;;;9.10;99.90;;;;;;5013166;28;20380;-78
2022/01/04 06:06:25;;;;;;;;;;;9.00;99.90;;;;;;5000208;28;19914;-86
2022/01/04 06:08:52;;;;;;;;;;;9.10;99.90;;;;;;5006410;28;19909;-78
2022/01/04 06:11:31;;;;;;;;;;;9.00;99.90;;;;;;5003868;28;19928;-85
2022/01/04 06:16:42;;;;;;;;;;;9.00;99.90;;;;;;5000242;28;19913;-77
2022/01/04 06:19:09;;;;;;;;;;;9.00;99.90;;;;;;4992428;28;19920;-77
2022/01/04 06:21:35;;;;;;;;;;;9.00;99.90;;;;;;5031942;28;20303;-77
2022/01/04 06:24:02;;;;;;;;;;;9.00;99.90;;;;;;5018455;28;19909;-83
2022/01/04 06:26:28;;;;;;;;;;;9.00;99.90;;;;;;4989105;28;20681;-77
2022/01/04 06:28:55;;;;;;;;;;;9.00;99.90;;;;;;4990347;28;19916;-84
2022/01/04 06:31:22;;;;;;;;;;;9.00;99.90;;;;;;4986242;28;19924;-80
2022/01/04 06:33:48;;;;;;;;;;;9.00;99.90;;;;;;4997240;28;19936;-84
2022/01/04 06:36:14;;;;;;;;;;;9.00;99.90;;;;;;5005734;28;19917;-81
2022/01/04 06:38:41;;;;;;;;;;;9.00;99.90;;;;;;5007340;28;19916;-83
2022/01/04 06:41:07;;;;;;;;;;;9.00;99.90;;;;;;5024135;28;19909;-82
2022/01/04 06:43:33;;;;;;;;;;;9.00;99.90;;;;;;5017863;28;19917;-81
2022/01/04 06:46:00;;;;;;;;;;;9.00;99.90;;;;;;4994086;28;19923;-82
2022/01/04 06:48:26;;;;;;;;;;;9.00;99.90;;;;;;4984114;28;19905;-82
2022/01/04 06:50:52;;;;;;;;;;;9.00;99.90;;;;;;5011438;28;19916;-82
2022/01/04 06:53:19;;;;;;;;;;;9.00;99.90;;;;;;5036259;28;19917;-83
2022/01/04 06:55:50;;;;;;;;;;;9.00;99.90;;;;;;5012703;28;19913;-82
2022/01/04 06:58:16;;;;;;;;;;;9.00;99.90;;;;;;4992234;28;19921;-82
2022/01/04 07:00:43;;;;;;;;;;;9.00;99.90;;;;;;5017050;28;19913;-80
2022/01/04 07:03:09;;;;;;;;;;;9.00;99.90;;;;;;5004999;28;19920;-83
2022/01/04 07:05:38;;;;;;;;;;;9.00;99.90;;;;;;5003416;28;19921;-82
2022/01/04 07:08:05;;;;;;;;;;;9.00;99.90;;;;;;5015987;28;19921;-82
2022/01/04 07:10:31;;;;;;;;;;;9.00;99.90;;;;;;5001218;28;19920;-83
2022/01/04 07:12:57;;;;;;;;;;;9.00;99.90;;;;;;5045229;28;20361;-81
2022/01/04 07:15:23;;;;;;;;;;;9.00;99.90;;;;;;4990083;28;19913;-79
2022/01/04 07:17:50;;;;;;;;;;;9.00;99.90;;;;;;5038191;28;19921;-81
2022/01/04 07:20:16;;;;;;;;;;;9.00;99.90;;;;;;5003499;28;19928;-81
2022/01/04 07:22:42;;;;;;;;;;;9.00;99.90;;;;;;5016817;28;19917;-80
2022/01/04 07:25:09;;;;;;;;;;;9.00;99.90;;;;;;5017447;28;19924;-79
2022/01/04 07:27:35;;;;;;;;;;;9.00;99.90;;;;;;5026903;28;19928;-79
2022/01/04 07:30:03;;;;;;;;;;;8.90;99.90;;;;;;4969471;28;19959;-79
2022/01/04 07:32:29;;;;;;;;;;;8.90;99.90;;;;;;5013686;28;19972;-79
2022/01/04 07:34:56;;;;;;;;;;;8.90;99.90;;;;;;5001348;28;19923;-79
2022/01/04 07:37:23;;;;;;;;;;;8.90;99.90;;;;;;5017134;28;19929;-80
2022/01/04 07:39:51;;;;;;;;;;;8.90;99.90;;;;;;5000612;28;20592;-78
2022/01/04 07:42:21;;;;;;;;;;;8.90;99.90;;;;;;5003091;28;19921;-80
2022/01/04 07:44:48;;;;;;;;;;;8.90;99.90;;;;;;5016109;28;20380;-80
2022/01/04 07:47:20;;;;;;;;;;;8.80;99.90;;;;;;5017756;28;19921;-80
2022/01/04 07:49:46;;;;;;;;;;;8.90;99.90;;;;;;5018777;28;19928;-80
2022/01/04 07:52:19;;;;;;;;;;;8.90;99.90;;;;;;5017755;28;20264;-80
2022/01/04 07:54:45;;;;;;;;;;;8.90;99.90;;;;;;5019407;28;19916;-80
2022/01/04 07:57:12;;;;;;;;;;;8.90;99.90;;;;;;5021378;28;20276;-80
2022/01/04 07:59:44;;;;;;;;;;;8.90;99.90;;;;;;5018957;28;19927;-80
2022/01/04 08:02:10;;;;;;;;;;;8.80;99.90;;;;;;5032413;28;19917;-79
2022/01/04 08:04:37;;;;;;;;;;;8.90;99.90;;;;;;5023331;28;19913;-79
2022/01/04 08:07:03;;;;;;;;;;;8.90;99.90;;;;;;5018707;28;19925;-80
2022/01/04 08:09:41;;;;;;;;;;;8.90;99.90;;;;;;5052448;28;19928;-79
2022/01/04 08:12:07;;;;;;;;;;;8.80;99.90;;;;;;5018918;28;20292;-79
2022/01/04 08:14:34;;;;;;;;;;;8.80;99.90;;;;;;5004555;28;19928;-79
2022/01/04 08:17:00;;;;;;;;;;;8.80;99.90;;;;;;4994615;28;19917;-79
2022/01/04 08:19:26;;;;;;;;;;;8.80;99.90;;;;;;5020105;28;19924;-79
2022/01/04 08:21:53;;;;;;;;;;;8.90;99.90;;;;;;5004442;28;19921;-79
2022/01/04 08:24:19;;;;;;;;;;;8.90;99.90;;;;;;5016245;28;19925;-77
2022/01/04 08:26:45;;;;;;;;;;;8.90;99.90;;;;;;5017546;28;19923;-82
2022/01/04 08:29:11;;;;;;;;;;;8.90;99.90;;;;;;5019031;28;19951;-76
2022/01/04 08:31:38;;;;;;;;;;;8.90;99.90;;;;;;5022292;28;19917;-77
2022/01/04 08:34:04;;;;;;;;;;;8.90;99.90;;;;;;5040110;28;19913;-79
2022/01/04 08:36:30;;;;;;;;;;;8.90;99.90;;;;;;5020262;28;19914;-81
2022/01/04 08:38:57;;;;;;;;;;;8.90;99.90;;;;;;4977434;28;20284;-82
2022/01/04 08:41:26;;;;;;;;;;;8.90;99.90;;;;;;5021829;28;19921;-78
2022/01/04 08:43:53;;;;;;;;;;;8.90;99.90;;;;;;5005383;28;19921;-78
2022/01/04 08:46:19;;;;;;;;;;;8.90;99.90;;;;;;4990096;28;19913;-79
2022/01/04 08:48:45;;;;;;;;;;;8.90;99.90;;;;;;5007032;28;19920;-78
2022/01/04 08:51:12;;;;;;;;;;;8.90;99.90;;;;;;4974480;28;19921;-80
2022/01/04 08:53:38;;;;;;;;;;;8.90;99.90;;;;;;4990051;28;19921;-79
2022/01/04 08:56:07;;;;;;;;;;;8.90;99.90;;;;;;5005060;28;19932;-80
2022/01/04 08:58:34;;;;;;;;;;;9.00;99.90;;;;;;5025313;28;20369;-79
2022/01/04 09:01:02;;;;;;;;;;;9.00;99.90;;;;;;4999098;28;19925;-79
2022/01/04 09:03:33;;;;;;;;;;;8.90;99.90;;;;;;5015078;28;20381;-79
2022/01/04 09:05:59;;;;;;;;;;;9.00;99.90;;;;;;5009602;28;20360;-79
2022/01/04 09:08:26;;;;;;;;;;;9.00;99.90;;;;;;5020152;28;19921;-80
2022/01/04 09:10:52;;;;;;;;;;;9.00;99.90;;;;;;5000206;28;20625;-79
2022/01/04 09:13:20;;;;;;;;;;;9.00;99.90;;;;;;5018680;28;19932;-79
2022/01/04 09:18:43;;;;;;;;;;;9.10;99.90;;;;;;5018290;28;19913;-79
2022/01/04 09:18:43;;;;;;;;;;;9.10;99.90;;;;;;4989531;28;19917;-79
2022/01/04 09:21:10;;;;;;;;;;;9.10;99.90;;;;;;5019815;28;19909;-79
2022/01/04 09:23:37;;;;;;;;;;;9.10;99.90;;;;;;4999419;28;19919;-79
2022/01/04 09:26:03;;;;;;;;;;;9.10;99.90;;;;;;5019637;28;19939;-78
2022/01/04 09:28:30;;;;;;;;;;;9.10;99.90;;;;;;5034464;28;19920;-78
2022/01/04 09:30:57;;;;;;;;;;;9.00;99.90;;;;;;5001569;28;19909;-78
2022/01/04 09:33:24;;;;;;;;;;;9.00;99.90;;;;;;4999119;28;20560;-78
2022/01/04 09:35:50;;;;;;;;;;;9.00;99.90;;;;;;5048722;28;19909;-79
2022/01/04 09:38:17;;;;;;;;;;;9.00;99.90;;;;;;5003874;28;19917;-79
2022/01/04 09:40:45;;;;;;;;;;;9.00;99.90;;;;;;4987050;28;19921;-79
2022/01/04 09:43:12;;;;;;;;;;;9.00;99.90;;;;;;5031614;28;19923;-79
2022/01/04 09:45:38;;;;;;;;;;;9.00;99.90;;;;;;5019443;28;20515;-79
2022/01/04 09:48:05;;;;;;;;;;;9.00;99.90;;;;;;5034352;28;19921;-80
2022/01/04 09:50:32;;;;;;;;;;;9.00;99.90;;;;;;5020618;28;19916;-78
2022/01/04 09:52:59;;;;;;;;;;;9.00;99.90;;;;;;5002332;28;19909;-79
2022/01/04 09:55:25;;;;;;;;;;;8.90;99.90;;;;;;5016174;28;19942;-79
2022/01/04 09:57:52;;;;;;;;;;;8.90;99.90;;;;;;4991735;28;20384;-80
2022/01/04 10:00:18;;;;;;;;;;;8.90;99.90;;;;;;5029705;28;19921;-79
2022/01/04 10:02:46;;;;;;;;;;;8.90;99.90;;;;;;5001888;28;19921;-78
2022/01/04 10:05:29;;;;;;;;;;;8.90;99.90;;;;;;5015647;28;19928;-78
2022/01/04 10:07:59;;;;;;;;;;;8.90;99.90;;;;;;5003809;28;19921;-78
2022/01/04 10:10:26;;;;;;;;;;;8.90;99.90;;;;;;5030139;28;19920;-79
2022/01/04 10:12:56;;;;;;;;;;;8.90;99.90;;;;;;5030479;28;19920;-79
2022/01/04 10:15:34;;;;;;;;;;;9.00;99.90;;;;;;5017410;28;19928;-79
2022/01/04 10:18:17;;;;;;;;;;;9.00;99.90;;;;;;5000694;28;19917;-79
2022/01/04 10:21:04;;;;;;;;;;;9.00;99.90;;;;;;5003560;28;19917;-79
2022/01/04 10:23:30;;;;;;;;;;;9.00;99.90;;;;;;5019913;28;19917;-80
2022/01/04 10:26:04;;;;;;;;;;;9.00;99.90;;;;;;4992946;28;20757;-79
2022/01/04 10:28:39;;;;;;;;;;;9.00;99.90;;;;;;5021628;28;20361;-78
2022/01/04 10:31:06;;;;;;;;;;;9.00;99.90;;;;;;5013562;28;19916;-79
2022/01/04 10:33:34;;;;;;;;;;;8.90;99.90;;;;;;5016097;28;19916;-78
2022/01/04 10:36:01;;;;;;;;;;;9.00;99.90;;;;;;5012807;28;19967;-79
2022/01/04 10:38:32;;;;;;;;;;;9.00;99.90;;;;;;5000106;28;19917;-79
2022/01/04 10:41:20;;;;;;;;;;;9.00;99.90;;;;;;5027799;28;19920;-78
2022/01/04 10:43:49;;;;;;;;;;;9.10;99.90;;;;;;4999163;28;19909;-78
2022/01/04 10:46:21;;;;;;;;;;;9.10;99.90;;;;;;5002846;28;19909;-78
2022/01/04 10:48:49;;;;;;;;;;;9.10;99.90;;;;;;5002436;28;19921;-77
2022/01/04 10:51:21;;;;;;;;;;;9.10;99.90;;;;;;4986494;28;19913;-80
2022/01/04 10:53:51;;;;;;;;;;;9.10;99.90;;;;;;5003740;28;19917;-79
2022/01/04 10:56:26;;;;;;;;;;;9.10;99.90;;;;;;5019860;28;19909;-79
2022/01/04 10:58:53;;;;;;;;;;;9.10;99.90;;;;;;5022827;28;19935;-78
2022/01/04 11:01:25;;;;;;;;;;;9.10;99.90;;;;;;5031085;28;19914;-78
2022/01/04 11:03:55;;;;;;;;;;;9.10;99.90;;;;;;5046599;28;19928;-78
2022/01/04 11:06:28;;;;;;;;;;;9.20;99.90;;;;;;5034741;28;19913;-80
2022/01/04 11:08:54;;;;;;;;;;;9.20;99.90;;;;;;5016306;28;19918;-79
2022/01/04 11:11:21;;;;;;;;;;;9.20;99.90;;;;;;5046970;28;20283;-79
2022/01/04 11:13:48;;;;;;;;;;;9.20;99.90;;;;;;5045310;28;19921;-79
2022/01/04 11:16:15;;;;;;;;;;;9.20;99.90;;;;;;5032619;28;19917;-79
2022/01/04 11:18:41;;;;;;;;;;;9.20;99.90;;;;;;5017679;28;20403;-79
2022/01/04 11:21:14;;;;;;;;;;;9.30;99.90;;;;;;5034720;28;19913;-79
2022/01/04 11:23:41;;;;;;;;;;;9.40;99.90;;;;;;4999388;28;19917;-79
2022/01/04 11:26:08;;;;;;;;;;;9.40;99.90;;;;;;5018552;28;20618;-79
2022/01/04 11:28:39;;;;;;;;;;;9.40;99.90;;;;;;5001775;28;19917;-79
2022/01/04 11:31:25;;;;;;;;;;;9.40;99.90;;;;;;5022702;28;19919;-79
2022/01/04 11:33:57;;;;;;;;;;;9.30;99.90;;;;;;5033965;28;21749;-79
2022/01/04 11:36:27;;;;;;;;;;;9.30;99.90;;;;;;5008821;28;19913;-78
2022/01/04 11:38:53;;;;;;;;;;;9.30;99.90;;;;;;4997665;28;19917;-79
2022/01/04 11:41:42;;;;;;;;;;;9.30;99.90;;;;;;5019818;28;19913;-79
2022/01/04 11:44:19;;;;;;;;;;;9.30;99.90;;;;;;5001659;28;20372;-78
2022/01/04 11:46:58;;;;;;;;;;;9.30;99.90;;;;;;5023299;28;19916;-78
2022/01/04 11:49:24;;;;;;;;;;;9.20;99.90;;;;;;4992329;28;19943;-78
2022/01/04 11:51:50;;;;;;;;;;;9.10;99.90;;;;;;5002306;28;21302;-78
2022/01/04 11:54:26;;;;;;;;;;;9.10;99.90;;;;;;5003953;28;20361;-78
2022/01/04 11:56:53;;;;;;;;;;;9.00;99.90;;;;;;5006865;28;20765;-78
2022/01/04 11:59:21;;;;;;;;;;;9.10;99.90;;;;;;5002509;28;19913;-78
2022/01/04 12:01:48;;;;;;;;;;;9.10;99.90;;;;;;5001507;28;21073;-78
2022/01/04 12:04:34;;;;;;;;;;;9.10;99.90;;;;;;5048034;28;20367;-78
2022/01/04 12:07:00;;;;;;;;;;;9.10;99.90;;;;;;4992861;28;19909;-78
2022/01/04 12:09:27;;;;;;;;;;;9.20;99.90;;;;;;5238575;23;19925;-77
2022/01/04 12:11:53;;;;;;;;;;;9.10;99.90;;;;;;4978284;28;20161;-77
2022/01/04 12:14:24;;;;;;;;;;;9.20;99.90;;;;;;4960435;28;19933;-77
2022/01/04 12:17:02;;;;;;;;;;;9.20;99.90;;;;;;4976921;28;19921;-78
2022/01/04 12:19:44;;;;;;;;;;;9.20;99.90;;;;;;4993246;28;19917;-85
2022/01/04 12:22:11;;;;;;;;;;;9.10;99.90;;;;;;4976845;28;19909;-77
2022/01/04 12:24:53;;;;;;;;;;;9.10;99.90;;;;;;4962710;28;19929;-77
2022/01/04 12:27:23;;;;;;;;;;;9.10;99.90;;;;;;4962420;28;20077;-77
2022/01/04 12:30:10;;;;;;;;;;;9.10;99.90;;;;;;4990875;28;24274;-77
2022/01/04 12:32:37;;;;;;;;;;;9.10;99.90;;;;;;4977215;28;19913;-78
2022/01/04 12:35:06;;;;;;;;;;;9.00;99.90;;;;;;4980283;28;19917;-78
2022/01/04 12:37:40;;;;;;;;;;;9.00;99.90;;;;;;5009848;28;19921;-78
2022/01/04 12:40:06;;;;;;;;;;;8.90;99.90;;;;;;4976713;28;19913;-77
2022/01/04 12:42:33;;;;;;;;;;;8.70;99.90;;;;;;4977249;28;19921;-78
2022/01/04 12:44:59;;;;;;;;;;;8.50;99.90;;;;;;4947493;28;19933;-75
2022/01/04 12:47:26;;;;;;;;;;;8.50;99.90;;;;;;5011971;28;19905;-77
2022/01/04 12:49:52;;;;;;;;;;;8.40;99.90;;;;;;5011475;28;19918;-77
2022/01/04 12:52:21;;;;;;;;;;;8.30;99.90;;;;;;4973327;28;20375;-79
2022/01/04 12:54:47;;;;;;;;;;;8.20;99.90;;;;;;4978614;28;19921;-80
2022/01/04 12:57:15;;;;;;;;;;;8.10;99.90;;;;;;4996002;28;19910;-77
2022/01/04 12:59:46;;;;;;;;;;;8.10;99.90;;;;;;4963955;28;19909;-78
2022/01/04 13:02:17;;;;;;;;;;;8.10;99.90;;;;;;4993712;28;20325;-77
2022/01/04 13:04:45;;;;;;;;;;;8.10;99.90;;;;;;4979118;28;19909;-80
2022/01/04 13:07:13;;;;;;;;;;;8.10;99.90;;;;;;4996264;28;19910;-80
2022/01/04 13:09:39;;;;;;;;;;;8.00;99.90;;;;;;4962352;28;19929;-79
2022/01/04 13:12:06;;;;;;;;;;;7.90;99.90;;;;;;4950997;28;20540;-80
2022/01/04 13:14:33;;;;;;;;;;;7.90;99.90;;;;;;4977692;28;20533;-82
2022/01/04 13:17:00;;;;;;;;;;;8.00;99.90;;;;;;4978718;28;19909;-79
2022/01/04 13:19:27;;;;;;;;;;;8.10;99.90;;;;;;4962958;28;19924;-77
2022/01/04 13:21:57;;;;;;;;;;;8.20;99.90;;;;;;4959185;28;19909;-77
2022/01/04 13:24:27;;;;;;;;;;;8.10;99.90;;;;;;4994726;28;19917;-77
2022/01/04 13:26:53;;;;;;;;;;;8.10;99.90;;;;;;4961161;28;20376;-77
2022/01/04 13:29:22;;;;;;;;;;;8.00;99.90;;;;;;4959568;28;19922;-79
2022/01/04 13:31:48;;;;;;;;;;;8.00;99.90;;;;;;4958097;28;19933;-79
2022/01/04 13:34:20;;;;;;;;;;;8.10;99.90;;;;;;4960121;28;19921;-79
2022/01/04 13:36:48;;;;;;;;;;;8.10;99.90;;;;;;4961426;28;19917;-79
2022/01/04 13:39:15;;;;;;;;;;;8.10;99.90;;;;;;4977937;28;19913;-80
2022/01/04 13:41:42;;;;;;;;;;;8.10;99.90;;;;;;4957114;28;20424;-79
2022/01/04 13:44:09;;;;;;;;;;;8.00;99.90;;;;;;4941486;28;19918;-77
2022/01/04 13:46:36;;;;;;;;;;;8.00;99.90;;;;;;4962624;28;19922;-77
2022/01/04 13:49:03;;;;;;;;;;;7.90;99.90;;;;;;4960319;28;20139;-77
2022/01/04 13:51:33;;;;;;;;;;;7.80;99.90;;;;;;4957317;28;19917;-77
2022/01/04 13:54:08;;;;;;;;;;;7.80;99.90;;;;;;4941131;28;19925;-77
2022/01/04 13:56:34;;;;;;;;;;;7.70;99.90;;;;;;4994590;28;20406;-77
2022/01/04 13:59:00;;;;;;;;;;;7.70;99.90;;;;;;4957591;28;20246;-77
2022/01/04 14:01:46;;;;;;;;;;;7.60;99.90;;;;;;4970954;28;19913;-77
2022/01/04 14:04:12;;;;;;;;;;;7.50;99.90;;;;;;4959407;28;19905;-77
2022/01/04 14:06:42;;;;;;;;;;;7.40;99.90;;;;;;4960944;28;19913;-77
2022/01/04 14:09:29;;;;;;;;;;;7.30;99.90;;;;;;4976109;28;19921;-77
2022/01/04 14:12:07;;;;;;;;;;;7.10;99.90;;;;;;4974785;28;19917;-77
2022/01/04 14:14:46;;;;;;;;;;;7.10;99.90;;;;;;4976985;28;20288;-77
2022/01/04 14:17:13;;;;;;;;;;;7.00;99.90;;;;;;4957603;28;19909;-77
2022/01/04 14:19:46;;;;;;;;;;;6.90;99.90;;;;;;4940965;28;19917;-77
2022/01/04 14:22:17;;;;;;;;;;;6.80;99.90;;;;;;4991145;28;19917;-77
2022/01/04 14:24:44;;;;;;;;;;;6.80;99.90;;;;;;4971980;28;19913;-77
2022/01/04 14:27:21;;;;;;;;;;;6.80;99.90;;;;;;4974662;28;19909;-77
2022/01/04 14:29:48;;;;;;;;;;;6.80;99.90;;;;;;4975086;28;19917;-77
2022/01/04 14:32:31;;;;;;;;;;;6.70;99.90;;;;;;4961070;28;20357;-77
2022/01/04 14:34:59;;;;;;;;;;;6.70;99.90;;;;;;4977880;28;19913;-77
2022/01/04 14:37:25;;;;;;;;;;;6.60;99.90;;;;;;4966893;28;19914;-77
2022/01/04 14:39:53;;;;;;;;;;;6.50;99.90;;;;;;4958620;28;19914;-77
2022/01/04 14:42:19;;;;;;;;;;;6.40;99.90;;;;;;4975290;28;20317;-78
2022/01/04 14:44:45;;;;;;;;;;;6.40;99.90;;;;;;4974468;28;20285;-79